createdAt,value
2019-03-02T00:02:08.955Z,46.47
2019-03-02T00:04:42.052Z,44.53
2019-03-02T00:07:12.306Z,53.83
2019-03-02T00:09:43.945Z,49.80
2019-03-02T00:12:14.343Z,49.03
2019-03-02T00:14:44.912Z,50.87
2019-03-02T00:17:18.719Z,47.50
2019-03-02T00:19:47.856Z,48.03
2019-03-02T00:22:18.262Z,52.37
2019-03-02T00:24:48.650Z,48.83
2019-03-02T00:27:21.302Z,53.70
2019-03-02T00:29:53.334Z,47.63
2019-03-02T00:32:23.792Z,37.67
2019-03-02T00:34:54.261Z,45.33
2019-03-02T00:37:24.719Z,34.80
2019-03-02T00:39:55.684Z,31.53
2019-03-02T00:42:26.186Z,31.00
2019-03-02T00:45:02.062Z,35.73
2019-03-02T00:47:35.229Z,40.63
2019-03-02T00:50:08.303Z,41.37
2019-03-02T00:52:39.315Z,33.57
2019-03-02T00:55:10.821Z,37.13
2019-03-02T00:57:41.361Z,33.07
2019-03-02T01:00:18.990Z,30.43
2019-03-02T01:02:49.519Z,38.40
2019-03-02T01:05:20.115Z,34.80
2019-03-02T01:07:51.047Z,38.50
2019-03-02T01:10:23.529Z,37.90
2019-03-02T01:12:54.264Z,37.07
2019-03-02T01:15:24.738Z,40.33
2019-03-02T01:17:55.540Z,37.03
2019-03-02T01:20:28.590Z,35.23
2019-03-02T01:22:58.199Z,35.60
2019-03-02T01:25:28.642Z,33.53
2019-03-02T01:27:59.258Z,41.00
2019-03-02T01:30:30.881Z,48.27
2019-03-02T01:33:01.581Z,46.37
2019-03-02T01:35:32.157Z,44.07
2019-03-02T01:38:02.700Z,45.50
2019-03-02T01:40:37.816Z,45.63
2019-03-02T01:43:07.835Z,41.53
2019-03-02T01:45:38.380Z,48.30
2019-03-02T01:48:09.081Z,42.53
2019-03-02T01:50:39.519Z,41.77
2019-03-02T01:53:10.749Z,41.77
2019-03-02T01:55:41.319Z,45.63
2019-03-02T01:58:12.049Z,42.60
2019-03-02T02:00:45.663Z,30.70
2019-03-02T02:03:15.293Z,39.77
2019-03-02T02:05:45.835Z,40.03
2019-03-02T02:08:16.227Z,42.40
2019-03-02T02:10:47.459Z,41.83
2019-03-02T02:13:17.925Z,43.47
2019-03-02T02:15:48.489Z,40.83
2019-03-02T02:18:19.029Z,44.90
2019-03-02T02:20:50.270Z,44.17
2019-03-02T02:23:21.738Z,40.87
2019-03-02T02:25:52.134Z,39.97
2019-03-02T02:28:22.618Z,46.97
2019-03-02T02:30:53.258Z,41.67
2019-03-02T02:33:23.799Z,45.23
2019-03-02T02:35:54.391Z,46.13
2019-03-02T02:38:25.485Z,43.50
2019-03-02T02:40:56.092Z,44.93
2019-03-02T02:43:26.607Z,44.97
2019-03-02T02:45:57.158Z,44.80
2019-03-02T02:48:31.194Z,42.40
2019-03-02T02:51:04.386Z,40.43
2019-03-02T02:53:32.717Z,37.87
2019-03-02T02:56:03.168Z,36.13
2019-03-02T02:58:33.579Z,39.03
2019-03-02T03:01:04.096Z,36.80
2019-03-02T03:03:34.534Z,40.93
2019-03-02T03:06:05.228Z,42.67
2019-03-02T03:08:44.243Z,44.70
2019-03-02T03:11:18.754Z,40.37
2019-03-02T03:13:49.329Z,47.07
2019-03-02T03:16:19.805Z,38.97
2019-03-02T03:18:52.224Z,39.47
2019-03-02T03:21:27.210Z,38.70
2019-03-02T03:24:02.930Z,38.40
2019-03-02T03:26:30.843Z,39.80
2019-03-02T03:28:58.915Z,37.23
2019-03-02T03:31:31.678Z,35.90
2019-03-02T03:34:01.538Z,44.50
2019-03-02T03:36:33.943Z,37.70
2019-03-02T03:39:07.184Z,37.70
2019-03-02T03:41:42.740Z,31.87
2019-03-02T03:44:10.719Z,43.57
2019-03-02T03:46:41.272Z,43.53
2019-03-02T03:49:11.803Z,38.47
2019-03-02T03:51:42.323Z,35.13
2019-03-02T03:54:21.100Z,41.13
2019-03-02T03:56:51.881Z,35.03
2019-03-02T03:59:22.707Z,30.77
2019-03-02T04:01:56.995Z,35.50
2019-03-02T04:04:29.038Z,37.70
2019-03-02T04:07:01.379Z,36.13
2019-03-02T04:09:30.509Z,38.33
2019-03-02T04:12:01.935Z,32.30
2019-03-02T04:14:32.443Z,34.83
2019-03-02T04:17:03.005Z,36.77
2019-03-02T04:19:36.031Z,34.20
2019-03-02T04:22:14.210Z,31.23
2019-03-02T04:24:44.779Z,36.13
2019-03-02T04:27:16.761Z,35.07
2019-03-02T04:29:50.206Z,35.00
2019-03-02T04:32:27.088Z,30.33
2019-03-02T04:34:54.420Z,36.17
2019-03-02T04:37:24.903Z,34.50
2019-03-02T04:39:57.374Z,35.30
2019-03-02T04:42:27.606Z,30.63
2019-03-02T04:45:01.707Z,32.57
2019-03-02T04:47:31.507Z,34.70
2019-03-02T04:50:01.985Z,36.23
2019-03-02T05:00:53.065Z,30.80
2019-03-02T05:03:24.535Z,34.93
2019-03-02T05:05:55.738Z,39.37
2019-03-02T05:08:26.157Z,26.17
2019-03-02T05:10:56.701Z,24.47
2019-03-02T05:13:28.364Z,32.27
2019-03-02T05:16:00.054Z,33.33
2019-03-02T05:18:30.589Z,30.13
2019-03-02T05:21:01.141Z,28.13
2019-03-02T05:23:31.628Z,33.47
2019-03-02T05:26:02.211Z,27.20
2019-03-02T05:28:39.616Z,27.33
2019-03-02T05:31:09.323Z,31.77
2019-03-02T05:33:39.944Z,26.10
2019-03-02T05:36:10.382Z,32.47
2019-03-02T05:38:40.902Z,25.67
2019-03-02T05:41:11.379Z,30.13
2019-03-02T05:43:41.849Z,31.37
2019-03-02T05:46:12.293Z,33.60
2019-03-02T05:48:43.208Z,28.80
2019-03-02T05:51:15.031Z,30.87
2019-03-02T05:53:45.407Z,32.60
2019-03-02T05:56:15.784Z,33.83
2019-03-02T05:58:47.726Z,28.90
2019-03-02T06:01:19.618Z,26.30
2019-03-02T06:03:50.222Z,29.23
2019-03-02T06:06:35.613Z,29.27
2019-03-02T06:09:13.732Z,35.53
2019-03-02T06:11:42.208Z,27.97
2019-03-02T06:14:13.515Z,29.30
2019-03-02T06:16:44.095Z,29.13
2019-03-02T06:19:17.793Z,29.97
2019-03-02T06:21:47.138Z,31.47
2019-03-02T06:24:17.642Z,31.20
2019-03-02T06:26:48.038Z,34.50
2019-03-02T06:29:18.524Z,33.50
2019-03-02T06:31:50.631Z,32.40
2019-03-02T06:34:21.106Z,31.17
2019-03-02T06:36:51.786Z,30.73
2019-03-02T06:39:22.211Z,33.07
2019-03-02T06:41:52.712Z,25.60
2019-03-02T06:44:23.205Z,29.07
2019-03-02T06:46:54.683Z,36.90
2019-03-02T06:49:26.962Z,29.27
2019-03-02T06:51:57.381Z,30.57
2019-03-02T06:54:27.996Z,25.60
2019-03-02T06:56:58.575Z,24.83
2019-03-02T06:59:29.103Z,26.20
2019-03-02T07:01:59.825Z,29.60
2019-03-02T07:04:32.429Z,30.17
2019-03-02T07:07:03.016Z,28.87
2019-03-02T07:09:33.605Z,25.77
2019-03-02T07:12:05.941Z,23.67
2019-03-02T07:14:37.337Z,23.93
2019-03-02T07:17:07.934Z,24.50
2019-03-02T07:19:42.817Z,25.43
2019-03-02T07:22:13.593Z,24.70
2019-03-02T07:24:45.557Z,27.80
2019-03-02T07:27:16.109Z,23.70
2019-03-02T07:29:49.846Z,24.33
2019-03-02T07:32:18.729Z,27.50
2019-03-02T07:34:50.053Z,26.10
2019-03-02T07:37:28.062Z,26.17
2019-03-02T07:39:59.362Z,26.90
2019-03-02T07:45:21.394Z,28.47
2019-03-02T07:47:51.990Z,26.47
2019-03-02T07:50:25.866Z,29.80
2019-03-02T07:52:54.853Z,28.07
2019-03-02T07:55:25.410Z,30.20
2019-03-02T07:57:55.856Z,26.20
2019-03-02T08:00:27.360Z,29.40
2019-03-02T08:02:57.932Z,30.17
2019-03-02T08:05:28.495Z,28.40
2019-03-02T08:07:59.557Z,27.90
2019-03-02T08:10:30.027Z,31.03
2019-03-02T08:13:04.746Z,30.13
2019-03-02T08:15:36.238Z,33.73
2019-03-02T08:18:06.925Z,31.57
2019-03-02T08:20:38.673Z,30.73
2019-03-02T08:23:09.233Z,28.67
2019-03-02T08:25:50.084Z,29.77
2019-03-02T08:28:20.630Z,28.57
2019-03-02T08:30:51.235Z,31.97
2019-03-02T08:33:21.782Z,30.83
2019-03-02T08:35:52.385Z,27.27
2019-03-02T08:38:22.834Z,30.27
2019-03-02T08:40:56.341Z,26.43
2019-03-02T08:43:25.563Z,25.33
2019-03-02T08:45:56.004Z,27.17
2019-03-02T08:48:26.927Z,32.30
2019-03-02T08:50:57.380Z,25.63
2019-03-02T08:53:28.953Z,26.83
2019-03-02T08:56:00.047Z,25.23
2019-03-02T08:58:31.589Z,22.47
2019-03-02T09:01:02.099Z,21.03
2019-03-02T09:09:41.135Z,15.57
2019-03-02T09:12:11.706Z,18.53
2019-03-02T09:14:45.081Z,15.77
2019-03-02T09:17:17.686Z,20.70
2019-03-02T09:19:49.444Z,18.60
2019-03-02T09:22:20.844Z,20.30
2019-03-02T09:24:52.989Z,14.03
2019-03-02T09:27:24.229Z,13.17
2019-03-02T09:29:55.751Z,15.33
2019-03-02T09:32:26.793Z,17.60
2019-03-02T09:34:57.439Z,15.87
2019-03-02T09:37:28.088Z,13.43
2019-03-02T09:40:02.098Z,15.67
2019-03-02T09:42:37.938Z,13.93
2019-03-02T09:45:11.537Z,14.60
2019-03-02T09:47:43.951Z,15.40
2019-03-02T09:50:21.683Z,14.60
2019-03-02T09:52:53.112Z,15.63
2019-03-02T09:55:24.119Z,13.77
2019-03-02T09:57:55.032Z,13.53
2019-03-02T10:00:30.239Z,16.30
2019-03-02T10:03:00.808Z,17.67
2019-03-02T10:05:31.989Z,13.93
2019-03-02T10:08:02.528Z,13.57
2019-03-02T10:10:33.576Z,14.60
2019-03-02T10:13:04.133Z,16.87
2019-03-02T10:15:36.869Z,14.97
2019-03-02T10:18:10.513Z,16.80
2019-03-02T10:20:43.525Z,16.03
2019-03-02T10:23:14.273Z,16.27
2019-03-02T10:25:44.755Z,16.43
2019-03-02T10:28:16.051Z,16.87
2019-03-02T10:30:47.791Z,17.70
2019-03-02T10:33:18.402Z,18.23
2019-03-02T10:35:54.124Z,18.23
2019-03-02T10:38:24.726Z,18.03
2019-03-02T10:40:55.127Z,16.50
2019-03-02T10:43:25.726Z,19.37
2019-03-02T10:45:56.984Z,19.00
2019-03-02T10:48:27.739Z,19.03
2019-03-02T10:50:59.159Z,18.27
2019-03-02T10:53:37.451Z,17.87
2019-03-02T10:56:09.260Z,15.33
2019-03-02T10:58:39.955Z,14.27
2019-03-02T11:01:10.603Z,15.03
2019-03-02T11:03:42.156Z,15.60
2019-03-02T11:06:14.627Z,14.97
2019-03-02T11:09:04.157Z,15.87
2019-03-02T11:14:19.543Z,16.27
2019-03-02T11:16:55.484Z,19.10
2019-03-02T11:19:31.380Z,14.77
2019-03-02T11:22:10.857Z,17.57
2019-03-02T11:24:44.221Z,16.93
2019-03-02T11:27:32.516Z,14.00
2019-03-02T11:30:04.653Z,16.70
2019-03-02T11:32:46.516Z,16.83
2019-03-02T11:35:35.432Z,18.10
2019-03-02T11:38:13.184Z,18.40
2019-03-02T11:40:48.242Z,17.63
2019-03-02T11:43:29.013Z,18.80
2019-03-02T11:46:01.207Z,17.50
2019-03-02T11:48:33.308Z,19.00
2019-03-02T11:51:05.672Z,20.27
2019-03-02T11:53:54.309Z,17.97
2019-03-02T11:56:46.747Z,17.93
2019-03-02T11:59:31.698Z,19.03
2019-03-02T12:02:15.624Z,19.73
2019-03-02T12:04:44.155Z,19.87
2019-03-02T12:07:22.221Z,20.17
2019-03-02T12:10:05.115Z,20.53
2019-03-02T12:12:44.289Z,20.73
2019-03-02T12:15:24.927Z,22.50
2019-03-02T12:18:04.208Z,18.93
2019-03-02T12:20:45.410Z,18.03
2019-03-02T12:23:29.802Z,18.13
2019-03-02T12:26:11.154Z,20.20
2019-03-02T12:28:47.115Z,18.63
2019-03-02T12:31:31.957Z,18.13
2019-03-02T12:34:23.358Z,17.70
2019-03-02T12:37:10.920Z,21.17
2019-03-02T12:39:46.112Z,20.00
2019-03-02T12:42:18.371Z,17.90
2019-03-02T12:45:06.564Z,22.53
2019-03-02T12:47:38.902Z,20.53
2019-03-02T12:50:18.910Z,16.87
2019-03-02T12:53:09.245Z,16.70
2019-03-02T12:55:47.294Z,21.83
2019-03-02T12:58:29.121Z,19.13
2019-03-02T13:01:20.350Z,18.60
2019-03-02T13:04:09.253Z,21.07
2019-03-02T13:06:58.380Z,20.50
2019-03-02T13:09:36.907Z,18.87
2019-03-02T13:12:26.943Z,18.90
2019-03-02T13:15:17.685Z,17.57
2019-03-02T13:17:52.639Z,20.07
2019-03-02T13:20:25.207Z,26.07
2019-03-02T13:23:14.363Z,23.70
2019-03-02T13:25:52.399Z,17.43
2019-03-02T13:28:25.497Z,21.27
2019-03-02T13:31:07.679Z,20.33
2019-03-02T13:33:52.515Z,20.10
2019-03-02T13:36:43.952Z,22.13
2019-03-02T13:39:23.184Z,19.10
2019-03-02T13:42:09.916Z,21.00
2019-03-02T13:44:45.962Z,23.40
2019-03-02T13:47:34.146Z,21.40
2019-03-02T13:50:14.031Z,22.80
2019-03-02T13:53:00.498Z,20.40
2019-03-02T13:55:49.486Z,18.43
2019-03-02T13:58:34.864Z,18.63
2019-03-02T14:01:21.264Z,20.33
2019-03-02T14:04:11.553Z,20.27
2019-03-02T14:07:00.010Z,22.07
2019-03-02T14:09:32.441Z,23.90
2019-03-02T14:12:21.080Z,22.67
2019-03-02T14:15:05.010Z,20.93
2019-03-02T14:17:40.758Z,21.70
2019-03-02T14:20:12.958Z,19.73
2019-03-02T14:22:48.791Z,24.27
2019-03-02T14:25:31.720Z,18.70
2019-03-02T14:28:03.752Z,21.80
2019-03-02T14:30:35.903Z,20.83
2019-03-02T14:33:13.920Z,18.40
2019-03-02T14:36:03.662Z,19.77
2019-03-02T14:38:44.437Z,20.03
2019-03-02T14:41:16.565Z,19.43
2019-03-02T14:44:05.585Z,21.73
2019-03-02T14:46:37.639Z,19.37
2019-03-02T14:49:11.188Z,20.43
2019-03-02T14:51:46.282Z,21.97
2019-03-02T14:54:35.428Z,18.40
2019-03-02T14:57:16.658Z,18.87
2019-03-02T15:00:01.302Z,20.77
2019-03-02T15:02:49.070Z,22.03
2019-03-02T15:05:27.640Z,18.90
2019-03-02T15:08:03.713Z,20.53
2019-03-02T15:10:36.009Z,22.80
2019-03-02T15:13:29.358Z,19.03
2019-03-02T15:22:03.804Z,22.60
2019-03-02T15:24:36.189Z,18.93
2019-03-02T15:27:29.953Z,23.17
2019-03-02T15:30:02.833Z,23.50
2019-03-02T15:32:40.905Z,20.77
2019-03-02T15:35:22.131Z,21.53
2019-03-02T15:38:12.906Z,22.50
2019-03-02T15:40:48.744Z,24.93
2019-03-02T15:43:23.905Z,23.13
2019-03-02T15:45:58.902Z,23.10
2019-03-02T15:48:30.247Z,25.30
2019-03-02T15:51:02.498Z,24.43
2019-03-02T15:53:41.004Z,22.93
2019-03-02T15:56:23.351Z,26.37
2019-03-02T15:58:59.606Z,24.33
2019-03-02T16:01:46.570Z,25.00
2019-03-02T16:04:31.889Z,25.43
2019-03-02T16:07:10.912Z,23.80
2019-03-02T16:10:01.040Z,23.00
2019-03-02T16:12:40.857Z,23.63
2019-03-02T16:15:13.531Z,23.87
2019-03-02T16:17:49.274Z,26.27
2019-03-02T16:20:24.352Z,27.17
2019-03-02T16:23:09.619Z,21.83
2019-03-02T16:25:45.462Z,23.60
2019-03-02T16:28:18.693Z,24.37
2019-03-02T16:30:50.851Z,25.73
2019-03-02T16:33:31.179Z,27.80
2019-03-02T16:36:20.667Z,24.13
2019-03-02T16:38:58.697Z,30.10
2019-03-02T16:41:46.898Z,33.47
2019-03-02T16:44:22.306Z,31.70
2019-03-02T16:47:14.945Z,37.03
2019-03-02T16:49:56.173Z,30.47
2019-03-02T16:52:44.711Z,35.17
2019-03-02T16:55:29.947Z,35.80
2019-03-02T16:58:20.581Z,29.23
2019-03-02T17:01:02.369Z,32.53
2019-03-02T17:03:42.725Z,31.73
2019-03-02T17:06:32.584Z,29.67
2019-03-02T17:09:14.027Z,32.73
2019-03-02T17:12:01.382Z,34.07
2019-03-02T17:14:33.623Z,34.43
2019-03-02T17:17:23.748Z,31.63
2019-03-02T17:20:05.745Z,30.37
2019-03-02T17:22:39.688Z,36.90
2019-03-02T17:25:11.963Z,29.73
2019-03-02T17:27:44.129Z,30.83
2019-03-02T17:30:46.953Z,35.03
2019-03-02T17:33:31.224Z,32.97
2019-03-02T17:36:21.536Z,33.40
2019-03-02T17:39:02.192Z,31.97
2019-03-02T17:41:34.310Z,36.57
2019-03-02T17:44:24.243Z,33.37
2019-03-02T17:46:59.177Z,36.00
2019-03-02T17:49:46.310Z,35.53
2019-03-02T17:52:21.660Z,40.30
2019-03-02T17:55:00.571Z,34.80
2019-03-02T17:57:33.631Z,34.77
2019-03-02T18:00:23.235Z,34.83
2019-03-02T18:03:11.683Z,37.53
2019-03-02T18:06:02.040Z,34.33
2019-03-02T18:08:34.147Z,37.97
2019-03-02T18:11:15.719Z,36.67
2019-03-02T18:13:47.824Z,33.63
2019-03-02T18:16:37.887Z,34.50
2019-03-02T18:19:08.426Z,35.97
2019-03-02T18:21:39.018Z,36.43
2019-03-02T18:24:09.638Z,35.70
2019-03-02T18:26:40.655Z,39.47
2019-03-02T18:29:11.315Z,32.57
2019-03-02T18:31:42.850Z,33.70
2019-03-02T18:34:15.027Z,34.17
2019-03-02T18:36:49.933Z,39.77
2019-03-02T18:39:21.868Z,35.13
2019-03-02T18:41:53.984Z,43.00
2019-03-02T18:44:25.367Z,36.70
2019-03-02T18:46:58.672Z,36.47
2019-03-02T18:49:47.413Z,34.07
2019-03-02T18:52:21.264Z,37.20
2019-03-02T18:54:52.688Z,38.93
2019-03-02T18:57:23.732Z,40.97
2019-03-02T18:59:54.101Z,40.20
2019-03-02T19:02:24.585Z,38.13
2019-03-02T19:04:55.039Z,40.03
2019-03-02T19:07:25.567Z,42.97
2019-03-02T19:09:56.112Z,38.13
2019-03-02T19:12:27.978Z,45.40
2019-03-02T19:14:59.819Z,39.47
2019-03-02T19:17:30.620Z,38.97
2019-03-02T19:20:02.194Z,38.00
2019-03-02T19:22:32.742Z,37.63
2019-03-02T19:25:03.238Z,37.90
2019-03-02T19:27:34.240Z,37.53
2019-03-02T19:30:07.678Z,37.77
2019-03-02T19:32:39.200Z,37.73
2019-03-02T19:35:12.314Z,36.60
2019-03-02T19:37:44.162Z,35.83
2019-03-02T19:40:24.650Z,34.37
2019-03-02T19:42:55.283Z,39.43
2019-03-02T19:45:25.797Z,33.77
2019-03-02T19:47:56.689Z,37.23
2019-03-02T19:50:27.382Z,41.60
2019-03-02T19:52:57.875Z,38.17
2019-03-02T19:55:28.493Z,34.10
2019-03-02T19:57:59.125Z,36.23
2019-03-02T20:00:32.520Z,37.57
2019-03-02T20:03:03.122Z,30.97
2019-03-02T20:05:33.813Z,29.77
2019-03-02T20:08:05.188Z,29.33
2019-03-02T20:10:35.736Z,28.87
2019-03-02T20:13:06.598Z,28.90
2019-03-02T20:15:36.994Z,31.23
2019-03-02T20:18:07.621Z,36.10
2019-03-02T20:20:38.206Z,35.37
2019-03-02T20:23:08.700Z,34.93
2019-03-02T20:25:40.608Z,36.43
2019-03-02T20:28:11.140Z,31.73
2019-03-02T20:30:44.731Z,35.57
2019-03-02T20:33:16.079Z,32.97
2019-03-02T20:35:46.905Z,34.90
2019-03-02T20:38:17.412Z,32.50
2019-03-02T20:40:57.309Z,33.73
2019-03-02T20:43:27.839Z,33.70
2019-03-02T20:45:58.215Z,33.47
2019-03-02T20:48:29.319Z,36.27
2019-03-02T20:50:59.990Z,34.63
2019-03-02T20:53:31.713Z,34.77
2019-03-02T20:56:02.085Z,40.23
2019-03-02T20:58:32.639Z,36.30
2019-03-02T21:01:03.602Z,33.70
2019-03-02T21:03:34.573Z,43.43
2019-03-02T21:06:07.613Z,49.60
2019-03-02T21:08:37.874Z,43.27
2019-03-02T21:11:08.319Z,41.27
2019-03-02T21:13:38.964Z,43.90
2019-03-02T21:16:09.543Z,46.60
2019-03-02T21:18:40.161Z,63.70
2019-03-02T21:21:11.013Z,50.93
2019-03-02T21:23:42.505Z,47.77
2019-03-02T21:26:12.962Z,49.83
2019-03-02T21:28:43.658Z,43.63
2019-03-02T21:31:14.278Z,47.00
2019-03-02T21:33:51.694Z,47.00
2019-03-02T21:36:22.372Z,44.57
2019-03-02T21:38:53.171Z,49.57
2019-03-02T21:41:23.746Z,50.27
2019-03-02T21:43:54.569Z,44.63
2019-03-02T21:46:25.141Z,45.53
2019-03-02T21:48:55.720Z,41.13
2019-03-02T21:51:27.905Z,41.93
2019-03-02T21:53:58.439Z,39.83
2019-03-02T21:56:28.952Z,40.37
2019-03-02T21:58:59.579Z,37.77
2019-03-02T22:01:30.114Z,37.70
2019-03-02T22:04:00.577Z,39.50
2019-03-02T22:06:31.671Z,41.33
2019-03-02T22:09:02.985Z,40.90
2019-03-02T22:11:35.379Z,45.87
2019-03-02T22:14:07.246Z,46.07
2019-03-02T22:16:39.270Z,45.60
2019-03-02T22:19:09.757Z,42.57
2019-03-02T22:21:40.297Z,46.13
2019-03-02T22:24:10.965Z,49.00
2019-03-02T22:26:41.517Z,47.03
2019-03-02T22:29:14.973Z,49.03
2019-03-02T22:31:50.611Z,47.37
2019-03-02T22:34:23.630Z,49.97
2019-03-02T22:36:54.219Z,46.23
2019-03-02T22:39:26.259Z,56.33
2019-03-02T22:41:56.967Z,48.73
2019-03-02T22:44:29.785Z,51.03
2019-03-02T22:47:00.298Z,48.40
2019-03-02T22:49:30.858Z,51.00
2019-03-02T22:52:01.232Z,48.50
2019-03-02T22:54:32.606Z,46.77
2019-03-02T22:57:03.195Z,45.93
2019-03-02T22:59:33.769Z,53.40
2019-03-02T23:02:08.816Z,50.00
2019-03-02T23:04:39.361Z,46.13
2019-03-02T23:07:09.925Z,47.40
2019-03-02T23:09:40.451Z,43.17
2019-03-02T23:12:10.974Z,49.27
2019-03-02T23:14:41.570Z,39.90
2019-03-02T23:17:12.030Z,47.80
2019-03-02T23:19:42.546Z,51.63
2019-03-02T23:22:13.030Z,52.33
2019-03-02T23:24:44.973Z,50.20
2019-03-02T23:27:15.351Z,42.80
2019-03-02T23:29:46.019Z,45.63
2019-03-02T23:32:16.645Z,50.50
2019-03-02T23:34:48.129Z,44.77
2019-03-02T23:37:18.532Z,48.00
2019-03-02T23:39:48.989Z,47.27
2019-03-02T23:42:20.419Z,47.33
2019-03-02T23:44:50.942Z,50.97
2019-03-02T23:47:21.413Z,46.20
2019-03-02T23:49:52.220Z,44.13
2019-03-02T23:52:22.776Z,50.87
2019-03-02T23:54:53.174Z,50.47
2019-03-02T23:57:23.599Z,48.10
2019-03-02T23:59:54.171Z,51.07
